sensor_id;sensor_type;location;lat;lon;timestamp;P1;durP1;ratioP1;P2;durP2;ratioP2
20232;SDS011;37438;55.674;13.074;2023-02-28T00:02:30;16.65;;;8.73;;
20232;SDS011;37438;55.674;13.074;2023-02-28T00:05:35;18.53;;;8.03;;
20232;SDS011;37438;55.674;13.074;2023-02-28T00:08:39;15.20;;;7.78;;
20232;SDS011;37438;55.674;13.074;2023-02-28T00:11:44;15.40;;;6.50;;
20232;SDS011;37438;55.674;13.074;2023-02-28T00:14:48;14.13;;;7.40;;
20232;SDS011;37438;55.674;13.074;2023-02-28T00:17:53;13.13;;;6.28;;
20232;SDS011;37438;55.674;13.074;2023-02-28T00:20:58;15.13;;;6.28;;
20232;SDS011;37438;55.674;13.074;2023-02-28T00:24:03;12.85;;;5.07;;
20232;SDS011;37438;55.674;13.074;2023-02-28T00:27:07;11.43;;;4.75;;
20232;SDS011;37438;55.674;13.074;2023-02-28T00:30:13;13.00;;;6.43;;
20232;SDS011;37438;55.674;13.074;2023-02-28T00:33:20;16.77;;;7.35;;
20232;SDS011;37438;55.674;13.074;2023-02-28T00:36:24;12.13;;;6.00;;
20232;SDS011;37438;55.674;13.074;2023-02-28T00:39:29;17.07;;;7.37;;
20232;SDS011;37438;55.674;13.074;2023-02-28T00:42:33;13.90;;;6.20;;
20232;SDS011;37438;55.674;13.074;2023-02-28T00:48:42;15.63;;;6.70;;
20232;SDS011;37438;55.674;13.074;2023-02-28T00:51:47;12.70;;;5.82;;
20232;SDS011;37438;55.674;13.074;2023-02-28T00:54:52;12.32;;;6.10;;
20232;SDS011;37438;55.674;13.074;2023-02-28T00:57:57;18.42;;;5.82;;
20232;SDS011;37438;55.674;13.074;2023-02-28T01:01:01;11.70;;;5.70;;
20232;SDS011;37438;55.674;13.074;2023-02-28T01:04:07;14.27;;;5.80;;
20232;SDS011;37438;55.674;13.074;2023-02-28T01:07:12;20.88;;;6.85;;
20232;SDS011;37438;55.674;13.074;2023-02-28T01:10:17;13.02;;;5.88;;
20232;SDS011;37438;55.674;13.074;2023-02-28T01:13:21;13.10;;;5.75;;
20232;SDS011;37438;55.674;13.074;2023-02-28T01:16:27;18.50;;;6.40;;
20232;SDS011;37438;55.674;13.074;2023-02-28T01:19:31;15.00;;;5.97;;
20232;SDS011;37438;55.674;13.074;2023-02-28T01:22:36;11.97;;;6.30;;
20232;SDS011;37438;55.674;13.074;2023-02-28T01:25:40;15.93;;;5.60;;
20232;SDS011;37438;55.674;13.074;2023-02-28T01:28:45;19.43;;;5.63;;
20232;SDS011;37438;55.674;13.074;2023-02-28T01:31:50;16.25;;;6.88;;
20232;SDS011;37438;55.674;13.074;2023-02-28T01:34:54;18.27;;;7.00;;
20232;SDS011;37438;55.674;13.074;2023-02-28T01:38:00;11.18;;;6.65;;
20232;SDS011;37438;55.674;13.074;2023-02-28T01:41:25;13.13;;;5.93;;
20232;SDS011;37438;55.674;13.074;2023-02-28T01:48:04;11.25;;;6.60;;
20232;SDS011;37438;55.674;13.074;2023-02-28T01:51:15;13.45;;;5.65;;
20232;SDS011;37438;55.674;13.074;2023-02-28T01:54:27;17.25;;;6.25;;
20232;SDS011;37438;55.674;13.074;2023-02-28T01:57:38;10.55;;;6.32;;
20232;SDS011;37438;55.674;13.074;2023-02-28T02:00:51;16.80;;;8.23;;
20232;SDS011;37438;55.674;13.074;2023-02-28T02:03:57;16.67;;;7.65;;
20232;SDS011;37438;55.674;13.074;2023-02-28T02:07:05;17.05;;;8.25;;
20232;SDS011;37438;55.674;13.074;2023-02-28T02:13:38;15.20;;;7.90;;
20232;SDS011;37438;55.674;13.074;2023-02-28T02:24:38;19.08;;;7.00;;
20232;SDS011;37438;55.674;13.074;2023-02-28T02:31:05;17.50;;;7.05;;
20232;SDS011;37438;55.674;13.074;2023-02-28T02:34:55;21.75;;;8.48;;
20232;SDS011;37438;55.674;13.074;2023-02-28T02:38:29;18.15;;;8.40;;
20232;SDS011;37438;55.674;13.074;2023-02-28T02:41:52;14.23;;;8.05;;
20232;SDS011;37438;55.674;13.074;2023-02-28T02:45:02;15.25;;;7.22;;
20232;SDS011;37438;55.674;13.074;2023-02-28T02:48:12;14.90;;;7.47;;
20232;SDS011;37438;55.674;13.074;2023-02-28T02:51:20;21.92;;;9.40;;
20232;SDS011;37438;55.674;13.074;2023-02-28T02:54:29;29.25;;;10.30;;
20232;SDS011;37438;55.674;13.074;2023-02-28T02:57:38;17.50;;;9.13;;
20232;SDS011;37438;55.674;13.074;2023-02-28T03:00:52;21.60;;;11.23;;
20232;SDS011;37438;55.674;13.074;2023-02-28T03:04:05;23.73;;;10.23;;
20232;SDS011;37438;55.674;13.074;2023-02-28T03:07:14;20.98;;;9.20;;
20232;SDS011;37438;55.674;13.074;2023-02-28T03:10:55;21.05;;;8.93;;
20232;SDS011;37438;55.674;13.074;2023-02-28T03:20:56;19.67;;;9.80;;
20232;SDS011;37438;55.674;13.074;2023-02-28T03:31:16;22.48;;;9.68;;
20232;SDS011;37438;55.674;13.074;2023-02-28T03:34:38;24.25;;;11.27;;
20232;SDS011;37438;55.674;13.074;2023-02-28T03:37:53;36.60;;;12.18;;
20232;SDS011;37438;55.674;13.074;2023-02-28T03:41:13;32.92;;;13.13;;
20232;SDS011;37438;55.674;13.074;2023-02-28T03:47:51;24.83;;;12.32;;
20232;SDS011;37438;55.674;13.074;2023-02-28T03:50:58;26.88;;;11.30;;
20232;SDS011;37438;55.674;13.074;2023-02-28T03:54:06;28.58;;;11.32;;
20232;SDS011;37438;55.674;13.074;2023-02-28T03:57:20;26.17;;;11.63;;
20232;SDS011;37438;55.674;13.074;2023-02-28T04:00:34;25.33;;;12.30;;
20232;SDS011;37438;55.674;13.074;2023-02-28T04:03:42;25.85;;;11.18;;
20232;SDS011;37438;55.674;13.074;2023-02-28T04:06:49;36.67;;;11.27;;
20232;SDS011;37438;55.674;13.074;2023-02-28T04:09:54;32.40;;;11.25;;
20232;SDS011;37438;55.674;13.074;2023-02-28T04:12:59;28.00;;;11.00;;
20232;SDS011;37438;55.674;13.074;2023-02-28T04:16:06;25.25;;;12.07;;
20232;SDS011;37438;55.674;13.074;2023-02-28T04:19:24;24.48;;;12.50;;
20232;SDS011;37438;55.674;13.074;2023-02-28T04:22:29;22.97;;;10.53;;
20232;SDS011;37438;55.674;13.074;2023-02-28T04:25:33;23.02;;;11.40;;
20232;SDS011;37438;55.674;13.074;2023-02-28T04:28:38;17.75;;;9.98;;
20232;SDS011;37438;55.674;13.074;2023-02-28T04:31:42;17.57;;;9.30;;
20232;SDS011;37438;55.674;13.074;2023-02-28T04:34:46;20.30;;;10.60;;
20232;SDS011;37438;55.674;13.074;2023-02-28T04:37:51;13.63;;;7.85;;
20232;SDS011;37438;55.674;13.074;2023-02-28T04:40:59;23.67;;;10.90;;
20232;SDS011;37438;55.674;13.074;2023-02-28T04:44:03;30.17;;;10.27;;
20232;SDS011;37438;55.674;13.074;2023-02-28T04:47:08;24.23;;;10.00;;
20232;SDS011;37438;55.674;13.074;2023-02-28T04:50:13;15.45;;;7.85;;
20232;SDS011;37438;55.674;13.074;2023-02-28T04:53:18;21.67;;;10.57;;
20232;SDS011;37438;55.674;13.074;2023-02-28T04:56:22;15.75;;;9.82;;
20232;SDS011;37438;55.674;13.074;2023-02-28T04:59:27;22.55;;;10.85;;
20232;SDS011;37438;55.674;13.074;2023-02-28T05:02:34;26.75;;;10.63;;
20232;SDS011;37438;55.674;13.074;2023-02-28T05:05:39;16.52;;;8.73;;
20232;SDS011;37438;55.674;13.074;2023-02-28T05:08:44;26.95;;;11.20;;
20232;SDS011;37438;55.674;13.074;2023-02-28T05:11:48;21.83;;;10.38;;
20232;SDS011;37438;55.674;13.074;2023-02-28T05:14:53;17.27;;;9.98;;
20232;SDS011;37438;55.674;13.074;2023-02-28T05:17:57;26.48;;;10.85;;
20232;SDS011;37438;55.674;13.074;2023-02-28T05:21:01;21.42;;;10.50;;
20232;SDS011;37438;55.674;13.074;2023-02-28T05:24:09;25.08;;;10.30;;
20232;SDS011;37438;55.674;13.074;2023-02-28T05:27:14;19.95;;;9.80;;
20232;SDS011;37438;55.674;13.074;2023-02-28T05:30:19;18.75;;;10.02;;
20232;SDS011;37438;55.674;13.074;2023-02-28T05:33:23;34.90;;;10.70;;
20232;SDS011;37438;55.674;13.074;2023-02-28T05:36:28;17.52;;;9.55;;
20232;SDS011;37438;55.674;13.074;2023-02-28T05:39:32;25.27;;;12.35;;
20232;SDS011;37438;55.674;13.074;2023-02-28T05:42:37;24.85;;;12.60;;
20232;SDS011;37438;55.674;13.074;2023-02-28T05:45:41;35.45;;;14.25;;
20232;SDS011;37438;55.674;13.074;2023-02-28T05:48:46;28.60;;;14.50;;
20232;SDS011;37438;55.674;13.074;2023-02-28T05:51:51;30.70;;;14.73;;
20232;SDS011;37438;55.674;13.074;2023-02-28T05:54:56;34.75;;;14.02;;
20232;SDS011;37438;55.674;13.074;2023-02-28T05:58:01;27.00;;;12.93;;
20232;SDS011;37438;55.674;13.074;2023-02-28T06:01:22;28.10;;;12.87;;
20232;SDS011;37438;55.674;13.074;2023-02-28T06:04:36;27.48;;;13.25;;
20232;SDS011;37438;55.674;13.074;2023-02-28T06:07:40;25.57;;;10.57;;
20232;SDS011;37438;55.674;13.074;2023-02-28T06:10:45;22.97;;;12.73;;
20232;SDS011;37438;55.674;13.074;2023-02-28T06:13:49;20.00;;;11.87;;
20232;SDS011;37438;55.674;13.074;2023-02-28T06:16:56;31.42;;;13.85;;
20232;SDS011;37438;55.674;13.074;2023-02-28T06:20:02;33.00;;;14.23;;
20232;SDS011;37438;55.674;13.074;2023-02-28T06:23:07;30.58;;;15.23;;
20232;SDS011;37438;55.674;13.074;2023-02-28T06:26:11;31.20;;;15.02;;
20232;SDS011;37438;55.674;13.074;2023-02-28T06:29:16;64.10;;;15.83;;
20232;SDS011;37438;55.674;13.074;2023-02-28T06:32:22;47.63;;;15.93;;
20232;SDS011;37438;55.674;13.074;2023-02-28T06:35:26;33.07;;;16.33;;
20232;SDS011;37438;55.674;13.074;2023-02-28T06:38:31;36.53;;;15.43;;
20232;SDS011;37438;55.674;13.074;2023-02-28T06:41:36;44.47;;;17.45;;
20232;SDS011;37438;55.674;13.074;2023-02-28T06:44:57;48.17;;;18.02;;
20232;SDS011;37438;55.674;13.074;2023-02-28T06:48:02;33.20;;;13.43;;
20232;SDS011;37438;55.674;13.074;2023-02-28T06:51:08;36.55;;;14.90;;
20232;SDS011;37438;55.674;13.074;2023-02-28T06:54:14;60.00;;;19.75;;
20232;SDS011;37438;55.674;13.074;2023-02-28T06:57:19;46.80;;;19.23;;
20232;SDS011;37438;55.674;13.074;2023-02-28T07:00:23;45.92;;;19.55;;
20232;SDS011;37438;55.674;13.074;2023-02-28T07:03:29;40.92;;;18.65;;
20232;SDS011;37438;55.674;13.074;2023-02-28T07:06:37;46.55;;;19.17;;
20232;SDS011;37438;55.674;13.074;2023-02-28T07:09:41;40.38;;;17.70;;
20232;SDS011;37438;55.674;13.074;2023-02-28T07:12:46;36.77;;;17.27;;
20232;SDS011;37438;55.674;13.074;2023-02-28T07:15:57;36.20;;;17.27;;
20232;SDS011;37438;55.674;13.074;2023-02-28T07:19:06;42.90;;;16.85;;
20232;SDS011;37438;55.674;13.074;2023-02-28T07:22:11;40.30;;;18.27;;
20232;SDS011;37438;55.674;13.074;2023-02-28T07:25:18;49.50;;;18.52;;
20232;SDS011;37438;55.674;13.074;2023-02-28T07:28:23;28.98;;;16.05;;
20232;SDS011;37438;55.674;13.074;2023-02-28T07:31:28;33.20;;;17.48;;
20232;SDS011;37438;55.674;13.074;2023-02-28T07:34:32;30.92;;;13.23;;
20232;SDS011;37438;55.674;13.074;2023-02-28T07:37:37;42.10;;;18.48;;
20232;SDS011;37438;55.674;13.074;2023-02-28T07:40:41;36.60;;;14.85;;
20232;SDS011;37438;55.674;13.074;2023-02-28T07:43:46;52.60;;;18.23;;
20232;SDS011;37438;55.674;13.074;2023-02-28T07:46:50;56.50;;;21.75;;
20232;SDS011;37438;55.674;13.074;2023-02-28T07:49:57;41.88;;;18.67;;
20232;SDS011;37438;55.674;13.074;2023-02-28T07:53:01;46.58;;;19.83;;
20232;SDS011;37438;55.674;13.074;2023-02-28T07:56:06;160.23;;;24.40;;
20232;SDS011;37438;55.674;13.074;2023-02-28T07:59:10;69.18;;;17.95;;
20232;SDS011;37438;55.674;13.074;2023-02-28T08:02:15;95.63;;;21.60;;
20232;SDS011;37438;55.674;13.074;2023-02-28T08:05:21;71.97;;;20.42;;
20232;SDS011;37438;55.674;13.074;2023-02-28T08:08:26;63.37;;;19.77;;
20232;SDS011;37438;55.674;13.074;2023-02-28T08:11:35;58.55;;;20.40;;
20232;SDS011;37438;55.674;13.074;2023-02-28T08:14:40;61.38;;;21.38;;
20232;SDS011;37438;55.674;13.074;2023-02-28T08:17:44;58.05;;;22.75;;
20232;SDS011;37438;55.674;13.074;2023-02-28T08:20:49;60.30;;;21.57;;
20232;SDS011;37438;55.674;13.074;2023-02-28T08:23:53;53.47;;;19.23;;
20232;SDS011;37438;55.674;13.074;2023-02-28T08:26:57;45.50;;;17.87;;
20232;SDS011;37438;55.674;13.074;2023-02-28T08:30:02;47.90;;;17.43;;
20232;SDS011;37438;55.674;13.074;2023-02-28T08:36:11;43.97;;;15.63;;
20232;SDS011;37438;55.674;13.074;2023-02-28T08:39:16;33.55;;;12.65;;
20232;SDS011;37438;55.674;13.074;2023-02-28T08:42:22;66.18;;;16.48;;
20232;SDS011;37438;55.674;13.074;2023-02-28T08:45:26;48.50;;;18.23;;
20232;SDS011;37438;55.674;13.074;2023-02-28T08:48:32;46.03;;;16.95;;
20232;SDS011;37438;55.674;13.074;2023-02-28T08:51:38;41.60;;;17.52;;
20232;SDS011;37438;55.674;13.074;2023-02-28T08:54:42;42.95;;;19.10;;
20232;SDS011;37438;55.674;13.074;2023-02-28T08:57:46;40.17;;;18.07;;
20232;SDS011;37438;55.674;13.074;2023-02-28T09:00:51;37.55;;;14.43;;
20232;SDS011;37438;55.674;13.074;2023-02-28T09:03:56;28.90;;;14.52;;
20232;SDS011;37438;55.674;13.074;2023-02-28T09:10:05;35.67;;;15.02;;
20232;SDS011;37438;55.674;13.074;2023-02-28T09:13:10;23.23;;;13.23;;
20232;SDS011;37438;55.674;13.074;2023-02-28T09:16:15;21.73;;;14.30;;
20232;SDS011;37438;55.674;13.074;2023-02-28T09:19:20;25.73;;;14.07;;
20232;SDS011;37438;55.674;13.074;2023-02-28T09:22:25;16.73;;;12.00;;
20232;SDS011;37438;55.674;13.074;2023-02-28T09:25:29;21.33;;;13.33;;
20232;SDS011;37438;55.674;13.074;2023-02-28T09:28:34;18.50;;;11.63;;
20232;SDS011;37438;55.674;13.074;2023-02-28T09:31:38;21.10;;;11.88;;
20232;SDS011;37438;55.674;13.074;2023-02-28T09:34:42;19.58;;;12.32;;
20232;SDS011;37438;55.674;13.074;2023-02-28T09:37:47;13.93;;;9.40;;
20232;SDS011;37438;55.674;13.074;2023-02-28T09:40:54;18.02;;;10.65;;
20232;SDS011;37438;55.674;13.074;2023-02-28T09:44:02;15.25;;;9.93;;
20232;SDS011;37438;55.674;13.074;2023-02-28T09:50:38;18.45;;;8.80;;
20232;SDS011;37438;55.674;13.074;2023-02-28T09:53:55;18.25;;;9.48;;
20232;SDS011;37438;55.674;13.074;2023-02-28T10:00:43;14.38;;;9.35;;
20232;SDS011;37438;55.674;13.074;2023-02-28T10:03:52;17.35;;;10.27;;
20232;SDS011;37438;55.674;13.074;2023-02-28T10:07:00;15.13;;;9.70;;
20232;SDS011;37438;55.674;13.074;2023-02-28T10:10:22;19.83;;;9.98;;
20232;SDS011;37438;55.674;13.074;2023-02-28T10:13:36;14.95;;;10.05;;
20232;SDS011;37438;55.674;13.074;2023-02-28T10:20:11;15.43;;;8.68;;
20232;SDS011;37438;55.674;13.074;2023-02-28T10:23:28;17.02;;;9.65;;
20232;SDS011;37438;55.674;13.074;2023-02-28T10:26:38;15.18;;;9.27;;
20232;SDS011;37438;55.674;13.074;2023-02-28T10:29:46;22.13;;;11.32;;
20232;SDS011;37438;55.674;13.074;2023-02-28T10:32:54;17.45;;;10.55;;
20232;SDS011;37438;55.674;13.074;2023-02-28T10:36:00;15.85;;;9.93;;
20232;SDS011;37438;55.674;13.074;2023-02-28T10:39:33;15.02;;;8.73;;
20232;SDS011;37438;55.674;13.074;2023-02-28T10:42:39;21.98;;;11.13;;
20232;SDS011;37438;55.674;13.074;2023-02-28T10:45:53;20.55;;;10.80;;
20232;SDS011;37438;55.674;13.074;2023-02-28T10:49:03;19.63;;;11.23;;
20232;SDS011;37438;55.674;13.074;2023-02-28T10:52:09;17.23;;;11.70;;
20232;SDS011;37438;55.674;13.074;2023-02-28T10:55:15;19.23;;;12.60;;
20232;SDS011;37438;55.674;13.074;2023-02-28T10:58:25;21.95;;;12.27;;
20232;SDS011;37438;55.674;13.074;2023-02-28T11:04:36;14.32;;;10.65;;
20232;SDS011;37438;55.674;13.074;2023-02-28T11:07:43;18.85;;;11.05;;
20232;SDS011;37438;55.674;13.074;2023-02-28T11:10:59;13.32;;;10.10;;
20232;SDS011;37438;55.674;13.074;2023-02-28T11:14:16;17.20;;;10.90;;
20232;SDS011;37438;55.674;13.074;2023-02-28T11:17:26;12.45;;;9.00;;
20232;SDS011;37438;55.674;13.074;2023-02-28T11:20:32;21.13;;;10.65;;
20232;SDS011;37438;55.674;13.074;2023-02-28T11:23:39;17.98;;;9.15;;
20232;SDS011;37438;55.674;13.074;2023-02-28T11:26:45;15.10;;;9.15;;
20232;SDS011;37438;55.674;13.074;2023-02-28T11:29:52;18.80;;;9.98;;
20232;SDS011;37438;55.674;13.074;2023-02-28T11:32:57;20.98;;;11.05;;
20232;SDS011;37438;55.674;13.074;2023-02-28T11:36:03;19.40;;;10.15;;
20232;SDS011;37438;55.674;13.074;2023-02-28T11:39:13;19.75;;;10.50;;
20232;SDS011;37438;55.674;13.074;2023-02-28T11:45:51;13.82;;;9.52;;
20232;SDS011;37438;55.674;13.074;2023-02-28T11:49:06;15.98;;;9.13;;
20232;SDS011;37438;55.674;13.074;2023-02-28T11:56:06;12.98;;;9.40;;
20232;SDS011;37438;55.674;13.074;2023-02-28T12:03:26;12.52;;;9.68;;
20232;SDS011;37438;55.674;13.074;2023-02-28T12:10:04;14.50;;;9.50;;
20232;SDS011;37438;55.674;13.074;2023-02-28T12:13:22;18.17;;;10.75;;
20232;SDS011;37438;55.674;13.074;2023-02-28T12:16:36;15.95;;;9.90;;
20232;SDS011;37438;55.674;13.074;2023-02-28T12:19:57;17.70;;;10.93;;
20232;SDS011;37438;55.674;13.074;2023-02-28T12:33:14;16.67;;;10.25;;
20232;SDS011;37438;55.674;13.074;2023-02-28T12:36:21;19.25;;;11.10;;
20232;SDS011;37438;55.674;13.074;2023-02-28T12:39:28;15.57;;;10.43;;
20232;SDS011;37438;55.674;13.074;2023-02-28T12:42:55;17.10;;;11.02;;
20232;SDS011;37438;55.674;13.074;2023-02-28T12:46:14;16.73;;;10.00;;
20232;SDS011;37438;55.674;13.074;2023-02-28T12:49:33;14.25;;;9.82;;
20232;SDS011;37438;55.674;13.074;2023-02-28T12:56:29;22.95;;;10.10;;
20232;SDS011;37438;55.674;13.074;2023-02-28T12:59:55;14.68;;;9.40;;
20232;SDS011;37438;55.674;13.074;2023-02-28T13:06:38;15.25;;;9.05;;
20232;SDS011;37438;55.674;13.074;2023-02-28T13:10:02;20.15;;;10.18;;
20232;SDS011;37438;55.674;13.074;2023-02-28T13:13:14;17.05;;;10.85;;
20232;SDS011;37438;55.674;13.074;2023-02-28T13:16:21;14.05;;;9.48;;
20232;SDS011;37438;55.674;13.074;2023-02-28T13:19:26;17.35;;;10.75;;
20232;SDS011;37438;55.674;13.074;2023-02-28T13:22:49;16.77;;;10.30;;
20232;SDS011;37438;55.674;13.074;2023-02-28T13:25:57;20.55;;;11.43;;
20232;SDS011;37438;55.674;13.074;2023-02-28T13:32:19;16.05;;;9.90;;
20232;SDS011;37438;55.674;13.074;2023-02-28T13:35:37;15.85;;;10.50;;
20232;SDS011;37438;55.674;13.074;2023-02-28T13:41:55;22.83;;;10.18;;
20232;SDS011;37438;55.674;13.074;2023-02-28T13:48:19;16.65;;;10.98;;
20232;SDS011;37438;55.674;13.074;2023-02-28T13:51:36;19.05;;;11.70;;
20232;SDS011;37438;55.674;13.074;2023-02-28T13:59:04;19.27;;;11.07;;
20232;SDS011;37438;55.674;13.074;2023-02-28T14:02:06;15.77;;;9.73;;
20232;SDS011;37438;55.674;13.074;2023-02-28T14:05:34;14.73;;;8.80;;
20232;SDS011;37438;55.674;13.074;2023-02-28T14:11:47;14.13;;;8.98;;
20232;SDS011;37438;55.674;13.074;2023-02-28T14:14:54;14.65;;;9.13;;
20232;SDS011;37438;55.674;13.074;2023-02-28T14:18:03;12.20;;;9.02;;
20232;SDS011;37438;55.674;13.074;2023-02-28T14:21:31;16.02;;;9.85;;
20232;SDS011;37438;55.674;13.074;2023-02-28T14:27:49;13.68;;;8.88;;
20232;SDS011;37438;55.674;13.074;2023-02-28T14:31:13;17.48;;;8.57;;
20232;SDS011;37438;55.674;13.074;2023-02-28T14:34:31;23.10;;;7.43;;
20232;SDS011;37438;55.674;13.074;2023-02-28T14:37:38;18.90;;;8.55;;
20232;SDS011;37438;55.674;13.074;2023-02-28T14:40:44;12.98;;;7.55;;
20232;SDS011;37438;55.674;13.074;2023-02-28T14:43:52;14.02;;;7.45;;
20232;SDS011;37438;55.674;13.074;2023-02-28T14:47:02;13.43;;;7.35;;
20232;SDS011;37438;55.674;13.074;2023-02-28T14:50:22;10.32;;;7.68;;
20232;SDS011;37438;55.674;13.074;2023-02-28T14:53:35;11.30;;;7.43;;
20232;SDS011;37438;55.674;13.074;2023-02-28T14:56:41;12.32;;;8.38;;
20232;SDS011;37438;55.674;13.074;2023-02-28T14:59:46;13.05;;;7.28;;
20232;SDS011;37438;55.674;13.074;2023-02-28T15:02:51;13.23;;;8.00;;
20232;SDS011;37438;55.674;13.074;2023-02-28T15:06:01;17.42;;;8.70;;
20232;SDS011;37438;55.674;13.074;2023-02-28T15:09:09;12.23;;;7.95;;
20232;SDS011;37438;55.674;13.074;2023-02-28T15:12:23;19.88;;;8.00;;
20232;SDS011;37438;55.674;13.074;2023-02-28T15:15:35;13.18;;;7.90;;
20232;SDS011;37438;55.674;13.074;2023-02-28T15:19:18;11.63;;;7.65;;
20232;SDS011;37438;55.674;13.074;2023-02-28T15:22:31;11.60;;;7.80;;
20232;SDS011;37438;55.674;13.074;2023-02-28T15:25:40;11.48;;;7.95;;
20232;SDS011;37438;55.674;13.074;2023-02-28T15:28:45;17.25;;;8.60;;
20232;SDS011;37438;55.674;13.074;2023-02-28T15:32:20;11.35;;;6.82;;
20232;SDS011;37438;55.674;13.074;2023-02-28T15:38:29;8.75;;;4.55;;
20232;SDS011;37438;55.674;13.074;2023-02-28T15:41:37;9.68;;;6.40;;
20232;SDS011;37438;55.674;13.074;2023-02-28T15:44:42;16.75;;;7.30;;
20232;SDS011;37438;55.674;13.074;2023-02-28T15:47:46;11.07;;;7.05;;
20232;SDS011;37438;55.674;13.074;2023-02-28T15:50:52;11.73;;;7.65;;
20232;SDS011;37438;55.674;13.074;2023-02-28T15:54:04;8.98;;;6.78;;
20232;SDS011;37438;55.674;13.074;2023-02-28T15:57:21;13.48;;;8.60;;
20232;SDS011;37438;55.674;13.074;2023-02-28T16:00:29;11.32;;;7.30;;
20232;SDS011;37438;55.674;13.074;2023-02-28T16:03:56;14.10;;;7.85;;
20232;SDS011;37438;55.674;13.074;2023-02-28T16:07:05;14.18;;;7.88;;
20232;SDS011;37438;55.674;13.074;2023-02-28T16:10:11;11.15;;;7.50;;
20232;SDS011;37438;55.674;13.074;2023-02-28T16:13:18;10.60;;;7.22;;
20232;SDS011;37438;55.674;13.074;2023-02-28T16:16:23;13.02;;;7.45;;
20232;SDS011;37438;55.674;13.074;2023-02-28T16:19:28;11.13;;;7.72;;
20232;SDS011;37438;55.674;13.074;2023-02-28T16:22:32;20.50;;;7.90;;
20232;SDS011;37438;55.674;13.074;2023-02-28T16:25:38;12.20;;;7.95;;
20232;SDS011;37438;55.674;13.074;2023-02-28T16:28:44;13.20;;;8.68;;
20232;SDS011;37438;55.674;13.074;2023-02-28T16:31:49;13.05;;;8.07;;
20232;SDS011;37438;55.674;13.074;2023-02-28T16:37:58;16.45;;;8.60;;
20232;SDS011;37438;55.674;13.074;2023-02-28T16:41:03;13.82;;;8.80;;
20232;SDS011;37438;55.674;13.074;2023-02-28T16:44:10;10.13;;;6.68;;
20232;SDS011;37438;55.674;13.074;2023-02-28T16:47:34;13.02;;;8.85;;
20232;SDS011;37438;55.674;13.074;2023-02-28T16:50:39;15.82;;;8.57;;
20232;SDS011;37438;55.674;13.074;2023-02-28T16:53:43;15.38;;;8.38;;
20232;SDS011;37438;55.674;13.074;2023-02-28T16:56:49;19.10;;;11.65;;
20232;SDS011;37438;55.674;13.074;2023-02-28T16:59:54;16.00;;;10.23;;
20232;SDS011;37438;55.674;13.074;2023-02-28T17:02:58;16.58;;;9.18;;
20232;SDS011;37438;55.674;13.074;2023-02-28T17:06:04;19.67;;;10.18;;
20232;SDS011;37438;55.674;13.074;2023-02-28T17:09:14;15.90;;;8.40;;
20232;SDS011;37438;55.674;13.074;2023-02-28T17:12:21;21.25;;;9.07;;
20232;SDS011;37438;55.674;13.074;2023-02-28T17:15:26;19.08;;;9.40;;
20232;SDS011;37438;55.674;13.074;2023-02-28T17:18:30;16.02;;;9.70;;
20232;SDS011;37438;55.674;13.074;2023-02-28T17:21:37;21.13;;;9.45;;
20232;SDS011;37438;55.674;13.074;2023-02-28T17:27:46;18.55;;;9.95;;
20232;SDS011;37438;55.674;13.074;2023-02-28T17:30:51;20.33;;;11.15;;
20232;SDS011;37438;55.674;13.074;2023-02-28T17:33:56;31.20;;;10.07;;
20232;SDS011;37438;55.674;13.074;2023-02-28T17:37:00;17.60;;;9.70;;
20232;SDS011;37438;55.674;13.074;2023-02-28T17:40:06;18.45;;;10.13;;
20232;SDS011;37438;55.674;13.074;2023-02-28T17:43:17;20.52;;;10.88;;
20232;SDS011;37438;55.674;13.074;2023-02-28T17:46:23;15.13;;;8.38;;
20232;SDS011;37438;55.674;13.074;2023-02-28T17:49:28;20.27;;;11.23;;
20232;SDS011;37438;55.674;13.074;2023-02-28T17:55:40;16.90;;;9.85;;
20232;SDS011;37438;55.674;13.074;2023-02-28T17:58:45;18.52;;;9.48;;
20232;SDS011;37438;55.674;13.074;2023-02-28T18:01:49;16.50;;;9.75;;
20232;SDS011;37438;55.674;13.074;2023-02-28T18:04:53;21.60;;;11.05;;
20232;SDS011;37438;55.674;13.074;2023-02-28T18:07:58;15.15;;;9.07;;
20232;SDS011;37438;55.674;13.074;2023-02-28T18:11:04;18.60;;;9.90;;
20232;SDS011;37438;55.674;13.074;2023-02-28T18:14:08;14.10;;;7.47;;
20232;SDS011;37438;55.674;13.074;2023-02-28T18:17:13;20.13;;;9.48;;
20232;SDS011;37438;55.674;13.074;2023-02-28T18:20:17;18.25;;;8.98;;
20232;SDS011;37438;55.674;13.074;2023-02-28T18:23:22;17.85;;;9.30;;
20232;SDS011;37438;55.674;13.074;2023-02-28T18:26:26;20.65;;;10.05;;
20232;SDS011;37438;55.674;13.074;2023-02-28T18:29:32;13.82;;;8.52;;
20232;SDS011;37438;55.674;13.074;2023-02-28T18:32:36;18.98;;;9.63;;
20232;SDS011;37438;55.674;13.074;2023-02-28T18:35:41;15.67;;;8.93;;
20232;SDS011;37438;55.674;13.074;2023-02-28T18:38:47;16.38;;;9.65;;
20232;SDS011;37438;55.674;13.074;2023-02-28T18:41:53;17.38;;;10.32;;
20232;SDS011;37438;55.674;13.074;2023-02-28T18:44:57;22.98;;;11.65;;
20232;SDS011;37438;55.674;13.074;2023-02-28T18:48:02;19.33;;;10.02;;
20232;SDS011;37438;55.674;13.074;2023-02-28T18:51:10;21.15;;;10.77;;
20232;SDS011;37438;55.674;13.074;2023-02-28T18:54:19;18.33;;;9.85;;
20232;SDS011;37438;55.674;13.074;2023-02-28T18:57:23;16.92;;;9.60;;
20232;SDS011;37438;55.674;13.074;2023-02-28T19:00:28;26.45;;;9.95;;
20232;SDS011;37438;55.674;13.074;2023-02-28T19:03:33;23.80;;;9.85;;
20232;SDS011;37438;55.674;13.074;2023-02-28T19:06:37;16.70;;;9.07;;
20232;SDS011;37438;55.674;13.074;2023-02-28T19:09:41;16.97;;;9.40;;
20232;SDS011;37438;55.674;13.074;2023-02-28T19:12:46;19.13;;;9.00;;
20232;SDS011;37438;55.674;13.074;2023-02-28T19:15:50;14.30;;;9.32;;
20232;SDS011;37438;55.674;13.074;2023-02-28T19:19:03;12.95;;;8.40;;
20232;SDS011;37438;55.674;13.074;2023-02-28T19:25:13;16.08;;;7.97;;
20232;SDS011;37438;55.674;13.074;2023-02-28T19:28:18;17.23;;;8.70;;
20232;SDS011;37438;55.674;13.074;2023-02-28T19:31:23;12.10;;;5.78;;
20232;SDS011;37438;55.674;13.074;2023-02-28T19:34:29;16.38;;;8.82;;
20232;SDS011;37438;55.674;13.074;2023-02-28T19:37:36;21.52;;;10.13;;
20232;SDS011;37438;55.674;13.074;2023-02-28T19:40:41;14.05;;;6.60;;
20232;SDS011;37438;55.674;13.074;2023-02-28T19:43:46;13.98;;;7.22;;
20232;SDS011;37438;55.674;13.074;2023-02-28T19:46:51;15.85;;;6.95;;
20232;SDS011;37438;55.674;13.074;2023-02-28T19:49:57;13.48;;;6.38;;
20232;SDS011;37438;55.674;13.074;2023-02-28T19:53:01;12.35;;;6.40;;
20232;SDS011;37438;55.674;13.074;2023-02-28T19:56:07;8.65;;;5.53;;
20232;SDS011;37438;55.674;13.074;2023-02-28T19:59:12;9.75;;;5.95;;
20232;SDS011;37438;55.674;13.074;2023-02-28T20:02:33;9.20;;;5.32;;
20232;SDS011;37438;55.674;13.074;2023-02-28T20:05:38;10.27;;;5.70;;
20232;SDS011;37438;55.674;13.074;2023-02-28T20:08:42;11.77;;;7.28;;
20232;SDS011;37438;55.674;13.074;2023-02-28T20:11:47;9.13;;;6.07;;
20232;SDS011;37438;55.674;13.074;2023-02-28T20:14:52;16.27;;;7.32;;
20232;SDS011;37438;55.674;13.074;2023-02-28T20:18:00;13.88;;;7.25;;
20232;SDS011;37438;55.674;13.074;2023-02-28T20:21:06;13.90;;;6.63;;